Time;durP1;ratioP1;P1;durP2;ratioP2;P2;SDS_P1;SDS_P2;PMS_P1;PMS_P2;Temp;Humidity;BMP_temperature;BMP_pressure;BME280_temperature;BME280_humidity;BME280_pressure;Samples;Min_cycle;Max_cycle;Signal;HPM_P1;HPM_P2
2021/10/30 00:02:41;;;;;;;37.07;14.70;;;4.50;1.00;;;;;;4388325;28;654285;-75
2021/10/30 00:05:29;;;;;;;35.77;14.97;;;4.50;1.00;;;;;;4378031;27;654339;-75
2021/10/30 00:08:17;;;;;;;33.70;14.03;;;4.40;1.00;;;;;;4415502;27;654719;-75
2021/10/30 00:11:05;;;;;;;31.17;13.33;;;4.40;1.00;;;;;;4419833;27;654720;-74
2021/10/30 00:13:53;;;;;;;35.70;14.48;;;4.40;1.00;;;;;;4406393;27;655925;-74
2021/10/30 00:16:41;;;;;;;35.90;15.30;;;4.40;1.00;;;;;;4396626;27;655259;-75
2021/10/30 00:19:34;;;;;;;34.90;14.37;;;4.40;1.00;;;;;;4408994;27;655062;-74
2021/10/30 00:22:23;;;;;;;37.23;14.40;;;4.30;1.00;;;;;;4358145;27;655271;-75
2021/10/30 00:25:11;;;;;;;33.87;13.70;;;4.40;1.00;;;;;;4399281;27;655185;-74
2021/10/30 00:28:00;;;;;;;34.23;13.03;;;4.40;1.00;;;;;;4405023;27;654857;-74
2021/10/30 00:30:47;;;;;;;31.47;13.67;;;4.50;1.00;;;;;;4398749;27;656075;-74
2021/10/30 00:33:36;;;;;;;31.83;13.27;;;4.50;1.00;;;;;;4399400;27;654927;-75
2021/10/30 00:36:26;;;;;;;32.07;12.97;;;4.50;1.00;;;;;;4430250;27;655265;-75
2021/10/30 00:39:14;;;;;;;33.33;13.03;;;4.60;1.00;;;;;;4388787;27;655183;-74
2021/10/30 00:42:01;;;;;;;32.53;13.13;;;4.50;1.00;;;;;;4408018;27;654322;-75
2021/10/30 00:44:49;;;;;;;32.47;12.67;;;4.60;1.00;;;;;;4449539;27;655319;-74
2021/10/30 00:47:37;;;;;;;29.07;12.70;;;4.60;1.00;;;;;;4404440;28;654551;-73
2021/10/30 00:50:25;;;;;;;29.97;12.10;;;4.60;1.00;;;;;;4387992;27;654563;-75
2021/10/30 00:53:14;;;;;;;30.67;12.90;;;4.70;1.00;;;;;;4411318;27;655359;-75
2021/10/30 00:56:06;;;;;;;29.97;13.00;;;4.70;1.00;;;;;;4410128;27;654703;-75
2021/10/30 00:58:54;;;;;;;32.03;13.07;;;4.60;1.00;;;;;;4459248;28;654574;-74
2021/10/30 01:01:42;;;;;;;30.67;12.27;;;4.50;1.00;;;;;;4446343;28;654292;-75
2021/10/30 01:04:30;;;;;;;25.30;11.82;;;4.50;1.00;;;;;;4479331;28;654732;-75
2021/10/30 01:07:20;;;;;;;24.03;11.20;;;4.60;1.00;;;;;;4450039;28;655187;-75
2021/10/30 01:10:09;;;;;;;30.10;11.03;;;4.60;1.00;;;;;;4427184;28;656083;-74
2021/10/30 01:12:57;;;;;;;27.27;10.77;;;4.70;1.00;;;;;;4449291;28;654628;-75
2021/10/30 01:15:45;;;;;;;25.63;11.33;;;4.80;1.00;;;;;;4483660;28;655057;-75
2021/10/30 01:18:33;;;;;;;27.25;10.88;;;4.90;99.90;;;;;;4460321;28;654844;-75
2021/10/30 01:21:26;;;;;;;23.50;10.63;;;4.90;99.90;;;;;;4455805;28;655994;-75
2021/10/30 01:24:14;;;;;;;25.10;10.07;;;5.00;99.90;;;;;;4432454;28;656232;-75
2021/10/30 01:27:02;;;;;;;23.23;9.70;;;5.10;99.90;;;;;;4453617;28;655358;-75
2021/10/30 01:29:50;;;;;;;25.97;10.43;;;5.10;99.90;;;;;;4477653;28;654493;-74
2021/10/30 01:32:38;;;;;;;21.03;8.60;;;5.30;99.90;;;;;;4456673;28;655578;-74
2021/10/30 01:35:30;;;;;;;19.42;8.40;;;5.40;35.40;;;;;;4436010;28;654248;-76
2021/10/30 01:38:19;;;;;;;22.93;9.03;;;5.40;1.00;;;;;;4453048;28;655676;-75
2021/10/30 01:41:07;;;;;;;21.60;9.30;;;5.40;1.00;;;;;;4452293;28;654366;-75
2021/10/30 01:43:55;;;;;;;23.33;8.83;;;5.50;1.00;;;;;;4485413;28;653166;-75
2021/10/30 01:46:43;;;;;;;20.10;8.43;;;5.50;1.00;;;;;;4458258;28;654056;-75
2021/10/30 01:49:31;;;;;;;20.83;8.57;;;5.50;1.00;;;;;;4464181;28;653408;-76
2021/10/30 01:52:18;;;;;;;22.33;8.87;;;5.50;99.90;;;;;;4485488;28;655400;-75
2021/10/30 01:55:10;;;;;;;20.10;7.97;;;5.50;99.90;;;;;;4460926;28;654598;-74
2021/10/30 01:57:58;;;;;;;23.27;8.17;;;5.40;99.90;;;;;;4433421;27;655368;-74
2021/10/30 02:00:48;;;;;;;16.50;7.95;;;5.40;99.90;;;;;;4410347;27;654830;-74
2021/10/30 02:03:36;;;;;;;21.03;8.27;;;5.40;99.90;;;;;;4422405;27;654325;-75
2021/10/30 02:06:23;;;;;;;18.40;8.10;;;5.30;99.90;;;;;;4455221;27;655673;-74
2021/10/30 02:09:11;;;;;;;19.00;8.53;;;5.30;99.90;;;;;;4424827;27;654543;-75
2021/10/30 02:12:00;;;;;;;19.17;7.87;;;5.30;99.90;;;;;;4456403;27;654744;-75
2021/10/30 02:14:47;;;;;;;15.13;7.43;;;5.20;99.90;;;;;;4436735;27;654781;-74
2021/10/30 02:17:36;;;;;;;19.70;8.17;;;5.20;1.00;;;;;;4447499;27;655168;-75
2021/10/30 02:20:23;;;;;;;18.10;8.07;;;5.10;1.00;;;;;;4454242;27;653854;-75
2021/10/30 02:23:11;;;;;;;16.90;7.27;;;5.10;1.00;;;;;;4465306;27;653370;-74
2021/10/30 02:25:59;;;;;;;17.50;8.03;;;5.10;1.00;;;;;;4452973;27;654917;-74
2021/10/30 02:28:48;;;;;;;15.50;7.27;;;5.20;1.00;;;;;;4433136;27;654107;-76
2021/10/30 02:31:36;;;;;;;14.27;7.37;;;5.10;1.00;;;;;;4403156;27;654004;-75
2021/10/30 02:34:23;;;;;;;17.17;7.73;;;5.20;1.00;;;;;;4453301;27;654048;-75
2021/10/30 02:37:11;;;;;;;23.13;9.07;;;5.10;1.00;;;;;;4459285;27;653502;-75
2021/10/30 02:39:58;;;;;;;19.83;8.93;;;5.10;1.00;;;;;;4460707;27;654952;-75
2021/10/30 02:42:46;;;;;;;22.07;9.17;;;5.10;1.00;;;;;;4459057;27;653806;-76
2021/10/30 02:45:35;;;;;;;16.58;8.40;;;5.10;1.00;;;;;;4492033;27;654724;-75
2021/10/30 02:48:23;;;;;;;22.73;8.77;;;5.00;99.90;;;;;;4465908;27;654351;-74
2021/10/30 02:51:10;;;;;;;19.93;8.17;;;5.00;99.90;;;;;;4436076;27;654388;-75
2021/10/30 02:53:58;;;;;;;20.00;8.33;;;5.00;1.00;;;;;;4485710;27;655708;-75
2021/10/30 02:56:47;;;;;;;19.80;9.13;;;5.00;1.00;;;;;;4457081;27;653066;-74
2021/10/30 02:59:35;;;;;;;20.00;8.83;;;4.90;99.90;;;;;;4490304;27;653391;-73
2021/10/30 03:02:23;;;;;;;18.23;9.10;;;4.90;1.00;;;;;;4459610;27;655432;-75
2021/10/30 03:05:12;;;;;;;19.33;8.23;;;4.90;1.00;;;;;;4463901;27;653383;-75
2021/10/30 03:07:59;;;;;;;21.73;9.57;;;4.80;1.00;;;;;;4489240;27;652907;-76
2021/10/30 03:10:47;;;;;;;20.37;9.70;;;4.90;1.00;;;;;;4449525;27;653509;-74
2021/10/30 03:13:34;;;;;;;22.90;9.67;;;4.90;1.00;;;;;;4492225;27;653789;-75
2021/10/30 03:16:22;;;;;;;20.17;9.90;;;4.80;1.00;;;;;;4470335;27;653398;-74
2021/10/30 03:19:11;;;;;;;23.67;10.67;;;4.80;1.00;;;;;;4493294;27;653776;-74
2021/10/30 03:21:59;;;;;;;21.00;9.50;;;4.80;1.00;;;;;;4467916;27;655211;-75
2021/10/30 03:24:46;;;;;;;22.57;9.07;;;4.90;1.00;;;;;;4469624;27;653379;-75
2021/10/30 03:27:34;;;;;;;20.67;8.93;;;4.90;1.00;;;;;;4491438;27;653241;-75
2021/10/30 03:30:21;;;;;;;18.83;8.63;;;5.00;1.00;;;;;;4447434;28;653678;-76
2021/10/30 03:33:09;;;;;;;17.33;8.03;;;5.00;1.00;;;;;;4470158;28;653688;-75
2021/10/30 03:35:58;;;;;;;20.07;8.47;;;5.10;1.00;;;;;;4459832;27;653724;-75
2021/10/30 03:38:45;;;;;;;17.67;8.53;;;5.10;1.00;;;;;;4470868;27;653429;-75
2021/10/30 03:41:33;;;;;;;16.87;8.10;;;5.10;1.00;;;;;;4492237;27;653806;-75
2021/10/30 03:44:21;;;;;;;17.30;7.80;;;5.10;1.00;;;;;;4468785;27;653046;-76
2021/10/30 03:47:09;;;;;;;18.87;7.67;;;5.10;1.00;;;;;;4484762;27;653970;-75
2021/10/30 03:49:56;;;;;;;17.85;7.57;;;5.20;99.90;;;;;;4462497;27;653517;-76
2021/10/30 03:52:45;;;;;;;16.77;7.93;;;5.10;99.90;;;;;;4485530;27;655169;-75
2021/10/30 03:55:33;;;;;;;19.00;7.70;;;5.10;99.90;;;;;;4463945;27;655240;-74
2021/10/30 03:58:20;;;;;;;16.47;7.13;;;5.10;99.90;;;;;;4449816;27;654453;-76
2021/10/30 04:01:08;;;;;;;18.10;7.37;;;5.10;1.00;;;;;;4424378;27;655098;-74
2021/10/30 04:03:56;;;;;;;17.65;7.20;;;5.10;1.00;;;;;;4403931;27;653819;-75
2021/10/30 04:06:43;;;;;;;20.00;7.50;;;5.10;1.00;;;;;;4489270;27;654340;-74
2021/10/30 04:09:32;;;;;;;16.37;7.70;;;5.10;1.00;;;;;;4455086;27;653625;-75
2021/10/30 04:12:19;;;;;;;17.87;7.87;;;5.00;1.00;;;;;;4451242;27;654230;-76
2021/10/30 04:15:07;;;;;;;19.50;8.03;;;5.10;1.00;;;;;;4398054;27;654721;-75
2021/10/30 04:17:56;;;;;;;21.87;8.20;;;5.00;1.00;;;;;;4458966;27;653657;-75
2021/10/30 04:20:43;;;;;;;16.20;7.33;;;5.00;1.00;;;;;;4443434;27;654339;-74
2021/10/30 04:23:31;;;;;;;14.07;7.10;;;4.90;1.00;;;;;;4418632;27;653634;-74
2021/10/30 04:26:20;;;;;;;21.03;8.27;;;4.90;1.00;;;;;;4493162;27;653729;-76
2021/10/30 04:29:07;;;;;;;14.13;6.57;;;4.90;1.00;;;;;;4390670;27;654518;-75
2021/10/30 04:31:57;;;;;;;14.97;7.50;;;4.90;1.00;;;;;;4458640;27;653832;-76
2021/10/30 04:34:47;;;;;;;19.03;7.67;;;4.90;1.00;;;;;;4477298;27;652943;-75
2021/10/30 04:37:34;;;;;;;15.13;7.13;;;4.80;1.00;;;;;;4423334;27;653555;-74
2021/10/30 04:40:22;;;;;;;16.63;7.23;;;4.90;1.00;;;;;;4429665;27;653903;-74
2021/10/30 04:43:11;;;;;;;15.77;6.30;;;4.90;1.00;;;;;;4443625;27;652804;-76
2021/10/30 04:45:59;;;;;;;14.80;6.63;;;4.90;1.00;;;;;;4461487;27;654246;-75
2021/10/30 04:48:46;;;;;;;15.50;6.40;;;5.00;1.00;;;;;;4458043;27;653993;-75
2021/10/30 04:51:34;;;;;;;16.93;7.33;;;5.00;1.00;;;;;;4461997;27;654296;-74
2021/10/30 04:54:21;;;;;;;29.00;11.63;;;5.00;1.00;;;;;;4433184;27;653778;-76
2021/10/30 04:57:08;;;;;;;26.48;10.43;;;5.00;1.00;;;;;;4466916;27;655860;-75
2021/10/30 04:59:57;;;;;;;15.80;6.70;;;5.10;1.00;;;;;;4465850;28;654886;-75
2021/10/30 05:02:45;;;;;;;14.73;6.40;;;5.10;1.00;;;;;;4482417;28;653580;-76
2021/10/30 05:05:33;;;;;;;19.53;7.43;;;5.10;99.90;;;;;;4485152;28;654545;-75
2021/10/30 05:08:21;;;;;;;17.60;7.63;;;5.10;99.90;;;;;;4465240;28;654430;-75
2021/10/30 05:11:09;;;;;;;13.73;6.17;;;5.10;99.90;;;;;;4484970;28;654672;-75
2021/10/30 05:13:57;;;;;;;14.53;5.90;;;5.10;99.90;;;;;;4463732;28;654727;-75
2021/10/30 05:16:46;;;;;;;18.63;6.27;;;5.00;99.90;;;;;;4484329;28;655241;-75
2021/10/30 05:19:33;;;;;;;11.43;5.67;;;5.10;99.90;;;;;;4460223;28;654846;-75
2021/10/30 05:22:21;;;;;;;21.73;9.83;;;5.00;99.90;;;;;;4462538;28;654856;-74
2021/10/30 05:25:10;;;;;;;17.90;7.67;;;5.00;99.90;;;;;;4485573;28;655001;-75
2021/10/30 05:27:57;;;;;;;16.10;7.47;;;4.90;99.90;;;;;;4464519;28;654555;-75
2021/10/30 05:30:45;;;;;;;14.07;6.57;;;4.90;99.90;;;;;;4484651;28;654405;-75
2021/10/30 05:33:34;;;;;;;12.20;6.37;;;4.90;99.90;;;;;;4459856;28;656405;-74
2021/10/30 05:36:25;;;;;;;23.70;9.40;;;4.90;99.90;;;;;;4463401;28;654252;-74
2021/10/30 05:39:15;;;;;;;22.07;9.20;;;4.90;99.90;;;;;;4460663;27;656030;-75
2021/10/30 05:42:03;;;;;;;15.67;7.63;;;4.90;99.90;;;;;;4468423;27;655819;-75
2021/10/30 05:44:51;;;;;;;15.10;7.30;;;4.90;99.90;;;;;;4469483;27;655000;-76
2021/10/30 05:47:39;;;;;;;15.30;7.10;;;4.90;99.90;;;;;;4491825;27;654797;-74
2021/10/30 05:50:28;;;;;;;27.57;12.87;;;4.90;99.90;;;;;;4465327;27;654875;-75
2021/10/30 05:53:15;;;;;;;47.80;22.03;;;4.90;1.00;;;;;;4472702;27;655242;-75
2021/10/30 05:56:03;;;;;;;37.70;15.50;;;4.90;1.00;;;;;;4486268;27;655128;-74
2021/10/30 05:58:51;;;;;;;39.90;15.97;;;5.00;1.00;;;;;;4452126;27;654876;-75
2021/10/30 06:01:39;;;;;;;19.47;9.13;;;5.00;1.00;;;;;;4479523;27;655130;-75
2021/10/30 06:04:26;;;;;;;56.23;21.03;;;5.10;1.00;;;;;;4459660;27;653147;-75
2021/10/30 06:07:15;;;;;;;45.97;17.23;;;5.20;1.00;;;;;;4478345;27;654437;-76
2021/10/30 06:10:03;;;;;;;59.57;21.80;;;5.20;1.00;;;;;;4458814;27;655773;-75
2021/10/30 06:12:51;;;;;;;40.63;14.70;;;5.40;1.00;;;;;;4458964;27;654851;-74
2021/10/30 06:15:38;;;;;;;34.97;13.50;;;5.50;99.90;;;;;;4481180;27;655508;-75
2021/10/30 06:18:29;;;;;;;33.27;13.40;;;5.50;99.90;;;;;;4457298;27;655799;-76
2021/10/30 06:21:18;;;;;;;39.23;16.13;;;5.60;99.90;;;;;;4453373;27;655774;-75
2021/10/30 06:24:07;;;;;;;56.50;18.43;;;5.70;99.90;;;;;;4470198;27;655571;-76
2021/10/30 06:26:55;;;;;;;210.07;42.77;;;5.90;99.90;;;;;;4476342;27;655686;-75
2021/10/30 06:29:42;;;;;;;60.43;17.07;;;6.00;99.90;;;;;;4452188;27;658852;-75
2021/10/30 06:32:30;;;;;;;82.03;25.13;;;6.00;99.90;;;;;;4475443;27;655934;-75
2021/10/30 06:35:17;;;;;;;47.10;15.40;;;6.10;99.90;;;;;;4452515;27;657270;-75
2021/10/30 06:38:05;;;;;;;37.87;13.57;;;6.30;99.90;;;;;;4475344;27;656037;-75
2021/10/30 06:40:57;;;;;;;48.37;16.40;;;6.40;99.90;;;;;;4474818;27;656763;-74
2021/10/30 06:43:44;;;;;;;55.23;18.17;;;6.50;99.90;;;;;;4457217;27;655795;-75
2021/10/30 06:46:32;;;;;;;57.47;19.53;;;6.70;99.90;;;;;;4450343;28;655614;-76
2021/10/30 06:49:20;;;;;;;50.73;18.40;;;6.80;99.90;;;;;;4477244;27;655593;-75
2021/10/30 06:52:09;;;;;;;69.63;20.27;;;6.80;99.90;;;;;;4454565;27;656138;-75
2021/10/30 06:54:57;;;;;;;60.53;20.47;;;7.00;99.90;;;;;;4449876;27;655447;-75
2021/10/30 06:57:46;;;;;;;38.23;14.63;;;7.20;99.90;;;;;;4487731;27;655865;-75
2021/10/30 07:00:34;;;;;;;43.65;18.67;;;7.40;99.90;;;;;;4463401;27;657197;-75
2021/10/30 07:03:21;;;;;;;31.57;16.27;;;7.60;1.00;;;;;;4466236;27;655993;-75
2021/10/30 07:06:09;;;;;;;38.47;16.80;;;7.80;1.00;;;;;;4486537;27;655034;-75
2021/10/30 07:08:57;;;;;;;34.47;14.40;;;8.10;1.00;;;;;;4465601;27;654185;-75
2021/10/30 07:11:44;;;;;;;35.57;13.83;;;8.30;99.90;;;;;;4487345;27;655195;-75
2021/10/30 07:14:33;;;;;;;19.87;9.03;;;8.50;99.90;;;;;;4461815;27;655495;-75
2021/10/30 07:17:21;;;;;;;23.40;10.30;;;8.70;1.00;;;;;;4466859;27;654496;-75
2021/10/30 07:20:10;;;;;;;18.33;8.87;;;8.90;99.90;;;;;;4495187;27;655595;-76
2021/10/30 07:22:57;;;;;;;16.57;7.60;;;9.10;1.00;;;;;;4472699;27;656122;-75
2021/10/30 07:25:45;;;;;;;18.37;7.73;;;9.30;1.00;;;;;;4488836;27;652928;-76
2021/10/30 07:28:32;;;;;;;14.67;6.97;;;9.60;99.90;;;;;;4479637;27;653050;-75
2021/10/30 07:31:22;;;;;;;14.07;6.60;;;9.80;1.00;;;;;;4483594;27;654876;-77
2021/10/30 07:34:09;;;;;;;17.73;8.53;;;10.00;99.90;;;;;;4501228;27;654330;-74
2021/10/30 07:36:57;;;;;;;23.93;8.90;;;10.30;99.90;;;;;;4474328;27;655479;-75
2021/10/30 07:39:46;;;;;;;19.90;7.43;;;10.50;1.00;;;;;;4476572;27;655960;-75
2021/10/30 07:42:34;;;;;;;17.37;6.73;;;10.80;99.90;;;;;;4460844;27;654667;-75
2021/10/30 07:45:21;;;;;;;14.43;7.20;;;11.10;1.00;;;;;;4443826;27;656196;-75
2021/10/30 07:48:10;;;;;;;12.17;5.83;;;11.40;1.00;;;;;;4487669;27;654186;-77
2021/10/30 07:50:58;;;;;;;12.27;5.50;;;11.70;51.10;;;;;;4479918;27;655480;-77
2021/10/30 07:53:46;;;;;;;13.53;5.50;;;12.00;99.90;;;;;;4479030;27;656065;-77
2021/10/30 07:56:34;;;;;;;12.57;4.70;;;12.40;1.00;;;;;;4492332;27;656848;-77
2021/10/30 07:59:21;;;;;;;13.07;5.37;;;12.80;99.90;;;;;;4469460;27;654791;-77
2021/10/30 08:02:09;;;;;;;10.65;4.78;;;13.30;1.00;;;;;;4495377;27;656061;-78
2021/10/30 08:04:58;;;;;;;11.97;5.57;;;13.70;1.00;;;;;;4480997;27;654770;-78
2021/10/30 08:07:46;;;;;;;9.13;4.83;;;14.20;99.90;;;;;;4474936;27;654762;-76
2021/10/30 08:10:33;;;;;;;13.37;5.17;;;14.60;82.30;;;;;;4483661;27;655315;-78
2021/10/30 08:13:21;;;;;;;11.13;5.40;;;15.00;1.00;;;;;;4467644;27;656614;-78
2021/10/30 08:16:08;;;;;;;12.27;5.50;;;15.50;1.00;;;;;;4486418;27;655125;-79
2021/10/30 08:18:56;;;;;;;12.63;5.17;;;16.00;1.00;;;;;;4469233;27;654373;-78
2021/10/30 08:21:45;;;;;;;10.77;5.40;;;16.40;1.00;;;;;;4492031;27;654297;-78
2021/10/30 08:24:33;;;;;;;8.40;4.63;;;16.70;99.90;;;;;;4471880;27;655365;-78
2021/10/30 08:27:20;;;;;;;12.50;4.78;;;17.00;99.90;;;;;;4467279;27;654754;-78
2021/10/30 08:30:09;;;;;;;12.67;6.23;;;17.30;99.90;;;;;;4502625;27;656759;-79
2021/10/30 08:32:57;;;;;;;12.97;7.33;;;17.70;99.90;;;;;;4464667;27;656120;-79
2021/10/30 08:35:45;;;;;;;12.53;6.37;;;17.80;99.90;;;;;;4483197;27;655145;-78
2021/10/30 08:38:34;;;;;;;11.43;5.17;;;18.00;99.90;;;;;;4460912;27;656993;-79
2021/10/30 08:41:22;;;;;;;13.30;4.93;;;18.10;99.90;;;;;;4467471;27;655629;-79
2021/10/30 08:44:09;;;;;;;11.00;4.47;;;18.30;99.90;;;;;;4485811;27;655808;-79
2021/10/30 08:46:57;;;;;;;8.07;4.47;;;18.40;99.90;;;;;;4467286;27;655652;-78
2021/10/30 08:49:45;;;;;;;9.83;4.43;;;18.60;99.90;;;;;;4481581;27;654441;-78
2021/10/30 08:52:32;;;;;;;11.30;5.17;;;18.80;99.90;;;;;;4468814;27;654948;-77
2021/10/30 08:55:21;;;;;;;9.43;4.93;;;19.00;92.20;;;;;;4484290;27;655012;-79
2021/10/30 08:58:10;;;;;;;9.40;4.83;;;19.10;92.60;;;;;;4407407;28;655005;-78
2021/10/30 09:00:58;;;;;;;8.33;4.60;;;19.70;87.60;;;;;;4395871;28;654859;-78
2021/10/30 09:03:57;;;;;;;10.67;5.00;;;19.60;52.50;;;;;;4401296;28;654247;-78
2021/10/30 09:06:57;;;;;;;10.47;5.57;;;19.60;31.70;;;;;;4416196;28;655610;-77
2021/10/30 09:09:45;;;;;;;13.07;6.33;;;19.90;42.70;;;;;;4403565;28;655635;-78
2021/10/30 09:12:34;;;;;;;7.73;5.03;;;20.10;47.90;;;;;;4395751;28;656619;-78
2021/10/30 09:15:31;;;;;;;10.80;4.80;;;20.20;18.60;;;;;;4394384;28;655178;-78
2021/10/30 09:18:29;;;;;;;11.37;7.23;;;20.60;17.30;;;;;;4396486;28;655767;-78
2021/10/30 09:21:18;;;;;;;12.63;6.77;;;20.80;16.80;;;;;;4407984;28;655701;-77
2021/10/30 09:24:08;;;;;;;13.37;7.77;;;21.00;1.00;;;;;;4405496;28;655645;-77
2021/10/30 09:26:56;;;;;;;11.87;6.77;;;21.40;1.00;;;;;;4406402;28;655237;-77
2021/10/30 09:29:55;;;;;;;13.90;6.63;;;21.60;1.00;;;;;;4427717;28;655432;-78
2021/10/30 09:32:45;;;;;;;11.67;5.47;;;21.90;1.00;;;;;;4404800;28;654422;-78
2021/10/30 09:35:34;;;;;;;10.50;5.03;;;21.90;1.00;;;;;;4399296;28;654295;-79
2021/10/30 09:38:30;;;;;;;8.50;5.33;;;22.10;1.00;;;;;;4394060;28;654602;-78
2021/10/30 09:41:23;;;;;;;8.50;5.40;;;22.60;1.00;;;;;;4390670;28;654013;-77
2021/10/30 09:44:13;;;;;;;9.20;5.60;;;22.90;1.00;;;;;;4393009;28;653950;-77
2021/10/30 09:47:02;;;;;;;9.07;5.30;;;23.10;1.00;;;;;;4394834;28;653988;-78
2021/10/30 09:49:50;;;;;;;9.30;5.20;;;23.30;1.00;;;;;;4417602;28;653633;-77
2021/10/30 09:52:38;;;;;;;9.40;5.37;;;23.50;1.00;;;;;;4407801;28;653470;-77
2021/10/30 09:55:27;;;;;;;11.27;5.53;;;23.90;1.00;;;;;;4401863;28;653961;-78
2021/10/30 09:58:14;;;;;;;10.43;6.03;;;23.40;1.00;;;;;;4420946;28;654714;-79
2021/10/30 10:01:04;;;;;;;11.73;6.87;;;23.10;1.00;;;;;;4396837;28;655668;-79
2021/10/30 10:03:53;;;;;;;15.10;7.50;;;23.30;1.00;;;;;;4387342;28;655326;-79
2021/10/30 10:06:42;;;;;;;14.70;6.70;;;23.60;1.00;;;;;;4404348;28;654308;-77
2021/10/30 10:09:30;;;;;;;12.53;6.77;;;23.60;1.00;;;;;;4427875;28;654806;-78
2021/10/30 10:12:17;;;;;;;14.13;7.30;;;23.60;1.00;;;;;;4389217;28;655541;-77
2021/10/30 10:15:06;;;;;;;16.63;6.67;;;24.00;1.00;;;;;;4427133;28;656151;-78
2021/10/30 10:17:53;;;;;;;28.63;6.90;;;24.20;1.00;;;;;;4408533;28;655803;-79
2021/10/30 10:20:42;;;;;;;12.53;6.80;;;24.30;1.00;;;;;;4409691;28;654835;-79
2021/10/30 10:23:30;;;;;;;20.60;7.07;;;24.50;1.00;;;;;;4420198;28;655229;-77
2021/10/30 10:26:17;;;;;;;12.57;7.23;;;24.60;1.00;;;;;;4389585;28;655752;-77
2021/10/30 10:29:05;;;;;;;16.87;8.03;;;24.70;1.00;;;;;;4427730;28;654502;-77
2021/10/30 10:31:53;;;;;;;13.47;7.47;;;24.40;1.00;;;;;;4432364;28;655867;-77
2021/10/30 10:34:41;;;;;;;17.17;7.05;;;24.70;1.00;;;;;;4389516;28;655856;-77
2021/10/30 10:37:30;;;;;;;14.68;7.20;;;24.80;1.00;;;;;;4421484;28;654667;-78
2021/10/30 10:40:35;;;;;;;11.00;6.50;;;25.20;1.00;;;;;;4401295;28;655282;-77
2021/10/30 10:43:44;;;;;;;10.80;6.03;;;25.50;1.00;;;;;;4372034;28;654960;-78
2021/10/30 10:46:32;;;;;;;9.18;5.80;;;26.00;1.00;;;;;;4397083;28;654330;-77
2021/10/30 10:49:22;;;;;;;11.55;5.85;;;26.00;1.00;;;;;;4412706;28;654000;-78
2021/10/30 10:52:14;;;;;;;11.98;5.70;;;26.30;1.00;;;;;;4409828;28;655166;-77
2021/10/30 10:55:07;;;;;;;11.13;5.65;;;25.60;1.00;;;;;;4399337;28;656152;-79
2021/10/30 10:57:59;;;;;;;11.02;6.07;;;25.40;1.00;;;;;;4404788;28;654850;-78
2021/10/30 11:01:01;;;;;;;9.68;5.75;;;25.70;1.00;;;;;;4404874;28;654244;-77
2021/10/30 11:03:49;;;;;;;12.50;5.70;;;25.40;1.00;;;;;;4397202;28;654188;-77
2021/10/30 11:06:41;;;;;;;9.45;4.78;;;25.30;1.00;;;;;;4390192;28;654681;-76
2021/10/30 11:09:29;;;;;;;7.60;5.10;;;25.30;1.00;;;;;;4391525;28;654348;-78
2021/10/30 11:12:25;;;;;;;11.20;5.00;;;25.80;1.00;;;;;;4399178;28;653585;-76
2021/10/30 11:15:15;;;;;;;8.68;4.70;;;26.10;1.00;;;;;;4397430;28;654444;-77
2021/10/30 11:18:05;;;;;;;9.63;4.22;;;26.20;1.00;;;;;;4385288;28;654613;-76
2021/10/30 11:21:12;;;;;;;6.50;3.95;;;26.30;1.00;;;;;;4403797;28;654133;-75
2021/10/30 11:24:00;;;;;;;7.03;3.60;;;24.90;1.00;;;;;;4397689;28;653006;-78
2021/10/30 11:26:58;;;;;;;9.13;4.88;;;23.60;1.00;;;;;;4400033;28;653667;-77
2021/10/30 11:29:52;;;;;;;12.73;5.72;;;23.90;1.00;;;;;;4382420;28;654379;-76
2021/10/30 11:32:39;;;;;;;7.65;3.88;;;24.40;1.00;;;;;;4399918;28;654197;-77
2021/10/30 11:35:27;;;;;;;9.82;5.47;;;24.60;1.00;;;;;;4394345;28;653763;-78
2021/10/30 11:38:15;;;;;;;10.52;6.00;;;24.80;1.00;;;;;;4417425;28;652822;-77
2021/10/30 11:41:04;;;;;;;9.43;5.60;;;25.30;1.00;;;;;;4406996;28;655096;-78
2021/10/30 11:43:52;;;;;;;11.10;5.70;;;25.90;1.00;;;;;;4409321;28;653619;-78
2021/10/30 11:46:42;;;;;;;9.43;5.45;;;25.70;1.00;;;;;;4421513;28;653900;-77
2021/10/30 11:49:31;;;;;;;14.48;5.10;;;26.20;1.00;;;;;;4413601;28;652912;-76
2021/10/30 11:52:18;;;;;;;12.63;5.70;;;26.40;1.00;;;;;;4395560;28;655535;-78
2021/10/30 11:55:06;;;;;;;9.40;5.65;;;26.60;1.00;;;;;;4396019;28;654697;-78
2021/10/30 11:57:54;;;;;;;8.30;5.43;;;26.40;1.00;;;;;;4424466;28;653486;-78
2021/10/30 12:00:48;;;;;;;8.90;4.10;;;26.20;1.00;;;;;;4404584;27;653753;-77
2021/10/30 12:03:37;;;;;;;7.03;4.15;;;25.30;1.00;;;;;;4378077;28;653846;-77
2021/10/30 12:06:25;;;;;;;6.85;3.45;;;24.80;1.00;;;;;;4413275;28;654170;-76
2021/10/30 12:09:38;;;;;;;7.45;3.60;;;24.50;1.00;;;;;;4392862;28;653472;-76
2021/10/30 12:12:26;;;;;;;8.53;3.70;;;23.90;1.00;;;;;;4377423;28;653763;-78
2021/10/30 12:15:13;;;;;;;7.40;3.50;;;24.20;1.00;;;;;;4418512;28;654218;-81
2021/10/30 12:18:01;;;;;;;8.05;4.13;;;25.00;1.00;;;;;;4400405;28;653479;-82
2021/10/30 12:20:54;;;;;;;9.90;3.90;;;26.00;1.00;;;;;;4427675;28;654088;-82
2021/10/30 12:23:56;;;;;;;7.75;4.43;;;27.00;1.00;;;;;;4406953;28;653540;-78
2021/10/30 12:26:53;;;;;;;8.25;4.05;;;29.00;1.00;;;;;;4404709;28;653540;-78
2021/10/30 12:29:42;;;;;;;6.47;3.65;;;30.40;1.00;;;;;;4390483;28;654200;-78
2021/10/30 12:32:30;;;;;;;4.60;3.30;;;31.80;1.00;;;;;;4431166;28;654051;-78
2021/10/30 12:35:21;;;;;;;6.57;3.60;;;32.70;1.00;;;;;;4414018;28;653735;-78
2021/10/30 12:38:13;;;;;;;7.68;3.65;;;33.20;1.00;;;;;;4409073;28;654177;-78
2021/10/30 12:41:01;;;;;;;4.95;3.22;;;33.60;1.00;;;;;;4391174;28;653627;-76
2021/10/30 12:43:48;;;;;;;5.50;3.65;;;33.70;1.00;;;;;;4435185;28;654532;-78
2021/10/30 12:46:52;;;;;;;5.75;3.53;;;33.60;1.00;;;;;;4392325;28;653565;-78
2021/10/30 12:49:40;;;;;;;5.03;3.50;;;33.30;1.00;;;;;;4396356;28;653521;-79
2021/10/30 12:52:39;;;;;;;5.20;3.60;;;33.30;1.00;;;;;;4409223;28;654236;-78
2021/10/30 12:55:29;;;;;;;6.97;3.83;;;33.00;1.00;;;;;;4403911;28;653764;-78
2021/10/30 12:58:18;;;;;;;5.68;3.30;;;32.70;1.00;;;;;;4386852;28;653726;-78
2021/10/30 13:01:06;;;;;;;7.13;3.40;;;33.10;1.00;;;;;;4413247;27;653115;-78
2021/10/30 13:04:00;;;;;;;6.50;3.58;;;32.60;1.00;;;;;;4416407;27;653529;-78
2021/10/30 13:06:58;;;;;;;4.78;3.47;;;33.20;1.00;;;;;;4380030;27;653621;-78
2021/10/30 13:09:54;;;;;;;7.65;3.40;;;34.00;1.00;;;;;;4384884;27;653183;-77
2021/10/30 13:12:43;;;;;;;7.65;3.42;;;34.60;1.00;;;;;;4430036;27;653635;-78
2021/10/30 13:15:31;;;;;;;5.88;3.80;;;34.80;1.00;;;;;;4401514;27;653578;-79
2021/10/30 13:18:21;;;;;;;7.22;3.17;;;34.90;1.00;;;;;;4433247;27;654529;-79
2021/10/30 13:21:16;;;;;;;6.32;3.58;;;35.30;1.00;;;;;;4398432;27;654009;-79
2021/10/30 13:24:04;;;;;;;6.85;4.22;;;36.30;1.00;;;;;;4409100;27;653627;-79
2021/10/30 13:26:52;;;;;;;7.35;3.97;;;37.30;1.00;;;;;;4428610;27;653780;-79
2021/10/30 13:29:41;;;;;;;7.20;3.63;;;37.60;1.00;;;;;;4451553;27;653563;-79
2021/10/30 13:32:28;;;;;;;8.27;3.60;;;38.00;1.00;;;;;;4464874;27;653631;-79
2021/10/30 13:35:16;;;;;;;7.68;3.40;;;38.00;1.00;;;;;;4464896;27;653323;-79
2021/10/30 13:38:04;;;;;;;6.03;3.88;;;37.30;1.00;;;;;;4492189;27;654342;-79
2021/10/30 13:40:51;;;;;;;5.15;3.90;;;37.10;1.00;;;;;;4402772;27;653358;-78
2021/10/30 13:43:39;;;;;;;7.78;3.45;;;36.40;1.00;;;;;;4447421;27;653630;-78
2021/10/30 13:46:28;;;;;;;7.13;3.25;;;35.20;1.00;;;;;;4466597;27;654133;-78
2021/10/30 13:49:16;;;;;;;4.95;2.90;;;34.80;1.00;;;;;;4465503;27;653601;-77
2021/10/30 13:52:04;;;;;;;5.38;2.83;;;34.60;1.00;;;;;;4492345;27;653470;-78
2021/10/30 13:54:51;;;;;;;4.90;2.95;;;33.20;1.00;;;;;;4403759;27;653872;-76
2021/10/30 13:57:41;;;;;;;11.95;3.10;;;32.20;1.00;;;;;;4476709;28;654392;-78
2021/10/30 14:00:29;;;;;;;8.05;3.40;;;31.30;1.00;;;;;;4466853;27;655286;-78
2021/10/30 14:03:18;;;;;;;5.55;2.50;;;31.60;1.00;;;;;;4469473;27;653775;-77
2021/10/30 14:06:06;;;;;;;4.47;2.90;;;31.60;1.00;;;;;;4478806;27;653547;-77
2021/10/30 14:08:54;;;;;;;5.97;3.45;;;31.10;1.00;;;;;;4487827;27;654027;-78
2021/10/30 14:11:42;;;;;;;18.60;3.65;;;31.10;1.00;;;;;;4465117;27;653480;-79
2021/10/30 14:14:30;;;;;;;7.25;3.67;;;31.20;1.00;;;;;;4490325;27;654539;-78
2021/10/30 14:17:18;;;;;;;8.45;3.10;;;31.70;1.00;;;;;;4464885;27;654067;-77
2021/10/30 14:20:08;;;;;;;6.63;2.90;;;31.10;1.00;;;;;;4469530;27;653552;-78
2021/10/30 14:22:56;;;;;;;15.88;2.97;;;30.90;1.00;;;;;;4469768;27;653338;-77
2021/10/30 14:25:44;;;;;;;4.35;3.20;;;30.50;1.00;;;;;;4489087;27;654315;-77
2021/10/30 14:28:31;;;;;;;6.88;2.90;;;30.30;1.00;;;;;;4467176;27;653723;-71
2021/10/30 14:31:21;;;;;;;4.50;2.60;;;30.20;1.00;;;;;;4487593;27;654471;-77
2021/10/30 14:34:09;;;;;;;27.85;3.78;;;30.20;1.00;;;;;;4466028;27;654247;-76